createdAt,value
2022-11-01T00:02:20.008Z,13.50
2022-11-01T00:04:46.638Z,13.53
2022-11-01T00:07:13.191Z,13.37
2022-11-01T00:09:39.762Z,13.42
2022-11-01T00:12:06.614Z,13.66
2022-11-01T00:14:33.174Z,13.54
2022-11-01T00:16:59.810Z,13.43
2022-11-01T00:19:26.386Z,13.33
2022-11-01T00:21:52.941Z,13.45
2022-11-01T00:24:21.991Z,13.59
2022-11-01T00:29:22.563Z,13.31
2022-11-01T00:31:50.022Z,12.95
2022-11-01T00:34:17.173Z,12.82
2022-11-01T00:36:44.122Z,13.44
2022-11-01T00:39:14.486Z,13.29
2022-11-01T00:41:41.186Z,13.52
2022-11-01T00:44:07.707Z,12.94
2022-11-01T00:46:34.637Z,13.15
2022-11-01T00:49:02.280Z,13.50
2022-11-01T00:51:28.859Z,13.42
2022-11-01T00:53:56.025Z,13.37
2022-11-01T00:56:24.493Z,13.55
2022-11-01T00:58:51.099Z,13.37
2022-11-01T01:01:21.923Z,13.28
2022-11-01T01:03:48.566Z,13.20
2022-11-01T01:06:15.144Z,13.14
2022-11-01T01:08:41.792Z,13.13
2022-11-01T01:11:08.334Z,13.06
2022-11-01T01:13:34.862Z,13.09
2022-11-01T01:16:01.488Z,12.87
2022-11-01T01:18:28.469Z,13.20
2022-11-01T01:21:06.627Z,13.26
2022-11-01T01:23:33.332Z,12.96
2022-11-01T01:25:59.929Z,12.49
2022-11-01T01:28:30.653Z,12.58
2022-11-01T01:30:57.194Z,12.52
2022-11-01T01:33:23.727Z,12.91
2022-11-01T01:35:50.612Z,12.73
2022-11-01T01:38:17.285Z,12.96
2022-11-01T01:40:47.815Z,13.06
2022-11-01T01:43:22.969Z,13.00
2022-11-01T01:45:49.533Z,12.60
2022-11-01T01:48:22.529Z,12.55
2022-11-01T01:50:57.255Z,12.64
2022-11-01T01:53:28.761Z,13.09
2022-11-01T01:56:12.759Z,13.10
2022-11-01T01:59:01.604Z,13.29
2022-11-01T02:01:32.187Z,13.24
2022-11-01T02:03:59.070Z,12.96
2022-11-01T02:06:26.551Z,13.05
2022-11-01T02:08:56.940Z,13.09
2022-11-01T02:11:23.659Z,13.17
2022-11-01T02:13:50.601Z,12.94
2022-11-01T02:16:32.571Z,12.87
2022-11-01T02:19:25.025Z,13.16
2022-11-01T02:21:56.578Z,12.96
2022-11-01T02:24:46.394Z,13.12
2022-11-01T02:27:51.705Z,13.11
2022-11-01T02:30:21.470Z,12.68
2022-11-01T02:32:54.695Z,12.96
2022-11-01T02:35:43.466Z,12.91
2022-11-01T02:38:28.263Z,13.19
2022-11-01T02:41:00.050Z,13.24
2022-11-01T02:43:48.468Z,12.95
2022-11-01T02:46:36.505Z,12.60
2022-11-01T02:49:04.304Z,12.98
2022-11-01T02:51:33.011Z,12.57
2022-11-01T02:54:07.987Z,13.10
2022-11-01T02:56:35.677Z,13.08
2022-11-01T02:59:02.528Z,13.01
2022-11-01T03:01:34.510Z,12.59
2022-11-01T03:04:02.278Z,13.11
2022-11-01T03:06:39.908Z,13.16
2022-11-01T03:09:11.430Z,12.89
2022-11-01T03:12:01.832Z,12.84
2022-11-01T03:14:54.664Z,12.89
2022-11-01T03:17:26.426Z,12.75
2022-11-01T03:19:52.939Z,12.94
2022-11-01T03:22:23.579Z,13.07
2022-11-01T03:25:42.954Z,12.67
2022-11-01T03:28:17.414Z,12.41
2022-11-01T03:30:51.951Z,12.60
2022-11-01T03:33:20.501Z,12.58
2022-11-01T03:35:51.811Z,12.81
2022-11-01T03:38:22.969Z,12.94
2022-11-01T03:41:03.490Z,13.07
2022-11-01T03:43:32.581Z,12.91
2022-11-01T03:45:59.168Z,12.79
2022-11-01T03:48:25.940Z,12.66
2022-11-01T03:50:56.214Z,12.80
2022-11-01T03:53:23.311Z,13.06
2022-11-01T03:55:50.185Z,13.02
2022-11-01T03:58:16.995Z,12.90
2022-11-01T04:00:45.084Z,12.71
2022-11-01T04:03:12.564Z,12.48
2022-11-01T04:05:40.843Z,12.92
2022-11-01T04:08:08.769Z,12.60
2022-11-01T04:10:35.442Z,12.49
2022-11-01T04:13:02.811Z,12.09
2022-11-01T04:15:48.396Z,12.34
2022-11-01T04:18:37.544Z,12.38
2022-11-01T04:21:06.741Z,12.41
2022-11-01T04:23:34.328Z,12.64
2022-11-01T04:26:01.935Z,12.70
2022-11-01T04:28:28.811Z,12.88
2022-11-01T04:30:55.706Z,12.76
2022-11-01T04:33:22.304Z,13.03
2022-11-01T04:35:49.086Z,13.03
2022-11-01T04:38:16.174Z,13.09
2022-11-01T04:40:43.466Z,13.21
2022-11-01T04:43:10.846Z,13.03
2022-11-01T04:45:40.878Z,13.13
2022-11-01T04:48:16.920Z,13.01
2022-11-01T04:50:45.531Z,12.65
2022-11-01T04:53:15.178Z,13.03
2022-11-01T04:55:41.742Z,12.95
2022-11-01T04:58:09.835Z,12.83
2022-11-01T05:00:37.447Z,12.97
2022-11-01T05:03:06.938Z,12.78
2022-11-01T05:05:36.956Z,13.10
2022-11-01T05:08:11.666Z,13.06
2022-11-01T05:10:41.556Z,12.64
2022-11-01T05:13:09.474Z,12.56
2022-11-01T05:15:40.208Z,12.53
2022-11-01T05:18:14.628Z,12.58
2022-11-01T05:20:41.170Z,13.07
2022-11-01T05:23:08.986Z,13.13
2022-11-01T05:25:38.070Z,13.02
2022-11-01T05:28:08.167Z,12.98
2022-11-01T05:30:35.719Z,12.86
2022-11-01T05:33:03.625Z,12.86
2022-11-01T05:35:31.074Z,13.11
2022-11-01T05:37:58.170Z,13.02
2022-11-01T05:40:25.194Z,13.14
2022-11-01T05:42:52.196Z,13.02
2022-11-01T05:45:18.832Z,12.49
2022-11-01T05:47:45.438Z,12.25
2022-11-01T05:50:14.089Z,12.58
2022-11-01T05:52:41.132Z,12.19
2022-11-01T05:55:08.702Z,12.33
2022-11-01T05:57:35.776Z,12.45
2022-11-01T06:00:03.506Z,12.43
2022-11-01T06:02:33.945Z,12.75
2022-11-01T06:05:03.052Z,12.95
2022-11-01T06:07:30.128Z,12.95
2022-11-01T06:09:56.782Z,12.24
2022-11-01T06:12:25.120Z,12.58
2022-11-01T06:14:52.108Z,12.46
2022-11-01T06:17:18.766Z,12.39
2022-11-01T06:19:45.458Z,12.27
2022-11-01T06:22:12.029Z,12.39
2022-11-01T06:24:38.604Z,12.54
2022-11-01T06:27:09.820Z,12.64
2022-11-01T06:29:38.006Z,11.92
2022-11-01T06:32:05.222Z,12.07
2022-11-01T06:34:32.294Z,12.47
2022-11-01T06:36:59.435Z,12.10
2022-11-01T06:39:26.447Z,12.24
2022-11-01T06:41:52.992Z,12.23
2022-11-01T06:44:19.557Z,12.26
2022-11-01T06:46:46.117Z,12.07
2022-11-01T06:49:16.420Z,12.58
2022-11-01T06:54:26.201Z,12.55
2022-11-01T06:56:52.790Z,12.52
2022-11-01T06:59:19.602Z,12.52
2022-11-01T07:01:46.264Z,12.63
2022-11-01T07:04:13.147Z,12.58
2022-11-01T07:06:40.039Z,12.81
2022-11-01T07:09:06.681Z,12.57
2022-11-01T07:11:33.771Z,12.11
2022-11-01T07:14:00.331Z,12.40
2022-11-01T07:16:27.508Z,12.22
2022-11-01T07:18:54.369Z,11.98
2022-11-01T07:21:21.128Z,12.34
2022-11-01T07:26:43.212Z,12.25
2022-11-01T07:29:09.732Z,12.65
2022-11-01T07:31:38.837Z,12.64
2022-11-01T07:34:06.053Z,12.98
2022-11-01T07:36:32.882Z,12.98
2022-11-01T07:38:59.429Z,13.06
2022-11-01T07:41:30.383Z,13.00
2022-11-01T07:43:56.990Z,12.77
2022-11-01T07:46:23.773Z,12.38
2022-11-01T07:48:51.407Z,12.36
2022-11-01T07:51:18.512Z,12.77
2022-11-01T07:53:45.073Z,12.17
2022-11-01T07:56:11.688Z,12.44
2022-11-01T07:58:38.505Z,12.54
2022-11-01T08:01:05.164Z,12.43
2022-11-01T08:03:31.783Z,12.50
2022-11-01T08:05:58.336Z,12.80
2022-11-01T08:08:24.872Z,12.92
2022-11-01T08:10:51.432Z,13.12
2022-11-01T08:13:25.234Z,13.33
2022-11-01T08:15:53.248Z,13.26
2022-11-01T08:18:22.687Z,13.25
2022-11-01T08:20:49.865Z,13.02
2022-11-01T08:23:16.926Z,12.71
2022-11-01T08:25:43.744Z,13.08
2022-11-01T08:28:16.101Z,12.90
2022-11-01T08:30:44.204Z,12.87
2022-11-01T08:33:11.515Z,12.90
2022-11-01T08:35:38.223Z,12.71
2022-11-01T08:38:05.146Z,12.76
2022-11-01T08:40:33.137Z,12.97
2022-11-01T08:42:59.905Z,13.27
2022-11-01T08:45:27.690Z,13.27
2022-11-01T08:47:59.357Z,13.18
2022-11-01T08:50:27.720Z,13.20
2022-11-01T08:52:54.503Z,13.19
2022-11-01T08:55:21.806Z,13.19
2022-11-01T08:57:49.040Z,13.35
2022-11-01T09:00:16.806Z,13.67
2022-11-01T09:02:43.360Z,13.67
2022-11-01T09:05:09.924Z,13.28
2022-11-01T09:07:37.587Z,13.44
2022-11-01T09:10:05.005Z,13.23
2022-11-01T09:12:31.848Z,13.26
2022-11-01T09:14:58.438Z,13.38
2022-11-01T09:17:25.081Z,13.50
2022-11-01T09:19:51.663Z,13.50
2022-11-01T09:22:18.198Z,13.23
2022-11-01T09:24:45.213Z,13.38
2022-11-01T09:27:12.342Z,13.48
2022-11-01T09:29:38.930Z,13.53
2022-11-01T09:34:40.723Z,13.42
2022-11-01T09:37:07.265Z,13.22
2022-11-01T09:39:33.820Z,13.42
2022-11-01T09:42:04.745Z,13.63
2022-11-01T09:44:40.438Z,13.31
2022-11-01T09:47:15.295Z,13.64
2022-11-01T09:49:46.387Z,13.75
2022-11-01T09:52:20.295Z,13.78
2022-11-01T09:54:47.322Z,13.73
2022-11-01T09:57:28.782Z,13.75
2022-11-01T10:00:13.522Z,13.63
2022-11-01T10:02:48.529Z,13.62
2022-11-01T10:05:34.146Z,13.24
2022-11-01T10:08:18.874Z,13.77
2022-11-01T10:11:09.911Z,13.77
2022-11-01T10:13:48.683Z,13.82
2022-11-01T10:16:22.163Z,13.94
2022-11-01T10:19:01.065Z,14.06
2022-11-01T10:21:37.064Z,13.52
2022-11-01T10:24:08.075Z,13.91
2022-11-01T10:26:34.782Z,13.61
2022-11-01T10:29:13.040Z,13.53
2022-11-01T10:31:45.412Z,13.25
2022-11-01T10:34:30.795Z,13.57
2022-11-01T10:37:14.316Z,13.86
2022-11-01T10:39:57.933Z,13.64
2022-11-01T10:42:30.600Z,13.93
2022-11-01T10:45:23.135Z,14.21
2022-11-01T10:47:55.477Z,14.16
2022-11-01T10:50:25.704Z,13.81
2022-11-01T10:52:56.999Z,13.66
2022-11-01T10:55:38.654Z,14.07
2022-11-01T10:58:13.448Z,14.39
2022-11-01T11:00:42.359Z,14.30
2022-11-01T11:03:31.138Z,14.45
2022-11-01T11:06:04.818Z,14.20
2022-11-01T11:08:32.787Z,14.35
2022-11-01T11:11:04.180Z,14.22
2022-11-01T11:13:31.703Z,14.15
2022-11-01T11:16:06.516Z,13.95
2022-11-01T11:18:38.906Z,13.89
2022-11-01T11:21:11.746Z,14.03
2022-11-01T11:23:56.098Z,13.91
2022-11-01T11:26:22.879Z,13.59
2022-11-01T11:28:53.545Z,13.71
2022-11-01T11:31:31.542Z,13.83
2022-11-01T11:34:20.084Z,14.12
2022-11-01T11:36:53.760Z,14.32
2022-11-01T11:39:29.477Z,14.60
2022-11-01T11:42:19.153Z,14.15
2022-11-01T11:44:55.399Z,14.16
2022-11-01T11:47:29.108Z,14.25
2022-11-01T11:49:58.360Z,14.58
2022-11-01T11:52:38.554Z,14.37
2022-11-01T11:55:25.917Z,14.02
2022-11-01T11:57:54.895Z,14.02
2022-11-01T12:00:24.029Z,14.18
2022-11-01T12:02:50.957Z,13.98
2022-11-01T12:05:20.084Z,13.80
2022-11-01T12:07:49.860Z,14.03
2022-11-01T12:10:34.152Z,14.23
2022-11-01T12:13:33.517Z,14.18
2022-11-01T12:16:23.972Z,14.34
2022-11-01T12:19:27.552Z,14.37
2022-11-01T12:21:57.028Z,14.23
2022-11-01T12:24:32.543Z,13.73
2022-11-01T12:27:07.157Z,14.05
2022-11-01T12:29:39.036Z,14.55
2022-11-01T12:32:19.692Z,14.71
2022-11-01T12:34:49.074Z,14.77
2022-11-01T12:37:32.406Z,14.58
2022-11-01T12:40:21.188Z,14.76
2022-11-01T12:42:52.019Z,14.84
2022-11-01T12:45:47.237Z,14.67
2022-11-01T12:48:28.818Z,14.79
2022-11-01T12:51:11.033Z,15.03
2022-11-01T12:54:12.285Z,15.06
2022-11-01T12:56:39.937Z,14.87
2022-11-01T12:59:10.397Z,14.99
2022-11-01T13:01:54.614Z,14.94
2022-11-01T13:04:31.399Z,15.23
2022-11-01T13:07:23.107Z,15.42
2022-11-01T13:10:18.411Z,15.14
2022-11-01T13:12:50.715Z,14.92
2022-11-01T13:15:28.136Z,15.08
2022-11-01T13:18:10.094Z,14.84
2022-11-01T13:21:05.708Z,14.77
2022-11-01T13:23:37.493Z,15.10
2022-11-01T13:26:22.198Z,15.01
2022-11-01T13:29:01.028Z,14.60
2022-11-01T13:31:48.658Z,15.02
2022-11-01T13:34:40.664Z,15.25
2022-11-01T13:37:22.136Z,15.10
2022-11-01T13:40:28.037Z,15.18
2022-11-01T13:43:05.191Z,14.88
2022-11-01T13:45:43.831Z,15.13
2022-11-01T13:48:59.937Z,15.21
2022-11-01T13:51:34.434Z,15.24
2022-11-01T13:54:11.517Z,15.20
2022-11-01T13:56:54.172Z,15.30
2022-11-01T13:59:45.142Z,15.34
2022-11-01T14:02:24.032Z,15.28
2022-11-01T14:05:13.623Z,15.36
2022-11-01T14:07:45.738Z,15.41
2022-11-01T14:10:17.968Z,15.49
2022-11-01T14:12:57.600Z,15.52
2022-11-01T14:15:26.859Z,15.52
2022-11-01T14:17:55.181Z,15.49
2022-11-01T14:20:33.790Z,15.39
2022-11-01T14:23:29.055Z,15.41
2022-11-01T14:26:21.041Z,15.29
2022-11-01T14:28:58.959Z,15.40
2022-11-01T14:31:28.382Z,15.30
2022-11-01T14:33:59.953Z,15.27
2022-11-01T14:36:31.304Z,15.31
2022-11-01T14:39:08.939Z,15.42
2022-11-01T14:41:40.596Z,15.39
2022-11-01T14:44:29.849Z,15.43
2022-11-01T14:47:00.861Z,15.43
2022-11-01T14:49:40.099Z,15.25
2022-11-01T14:52:21.943Z,15.29
2022-11-01T14:55:00.570Z,15.36
2022-11-01T14:57:32.550Z,15.38
2022-11-01T14:59:59.890Z,15.31
2022-11-01T15:02:28.385Z,15.29
2022-11-01T15:05:00.058Z,15.34
2022-11-01T15:07:31.169Z,15.26
2022-11-01T15:10:04.629Z,15.25
2022-11-01T15:12:35.325Z,15.14
2022-11-01T15:15:02.873Z,15.09
2022-11-01T15:17:33.431Z,15.00
2022-11-01T15:20:04.112Z,14.94
2022-11-01T15:22:33.612Z,15.04
2022-11-01T15:25:05.803Z,15.06
2022-11-01T15:27:38.801Z,15.09
2022-11-01T15:30:06.549Z,15.11
2022-11-01T15:32:35.083Z,15.13
2022-11-01T15:35:05.956Z,15.17
2022-11-01T15:37:33.674Z,15.17
2022-11-01T15:40:01.663Z,15.23
2022-11-01T15:42:33.780Z,15.25
2022-11-01T15:45:26.655Z,15.16
2022-11-01T15:47:53.912Z,15.24
2022-11-01T15:50:20.827Z,15.16
2022-11-01T15:52:47.490Z,15.10
2022-11-01T15:55:21.246Z,15.09
2022-11-01T15:57:56.579Z,15.14
2022-11-01T16:00:27.662Z,15.21
2022-11-01T16:03:04.354Z,15.23
2022-11-01T16:05:56.928Z,15.20
2022-11-01T16:08:29.363Z,15.22
2022-11-01T16:10:56.346Z,15.23
2022-11-01T16:13:23.426Z,15.23
2022-11-01T16:16:07.866Z,15.26
2022-11-01T16:18:40.045Z,15.21
2022-11-01T16:21:18.416Z,15.22
2022-11-01T16:24:04.007Z,15.24
2022-11-01T16:26:33.496Z,15.29
2022-11-01T16:29:00.073Z,15.14
2022-11-01T16:31:29.356Z,15.07
2022-11-01T16:33:57.413Z,15.15
2022-11-01T16:36:36.438Z,15.20
2022-11-01T16:39:24.338Z,15.11
2022-11-01T16:41:52.294Z,15.15
2022-11-01T16:44:19.213Z,15.18
2022-11-01T16:46:45.942Z,15.24
2022-11-01T16:49:15.493Z,15.19
2022-11-01T16:51:45.363Z,15.12
2022-11-01T16:54:12.822Z,15.15
2022-11-01T16:56:58.687Z,15.15
2022-11-01T16:59:34.373Z,15.16
2022-11-01T17:02:11.461Z,15.22
2022-11-01T17:04:39.674Z,15.23
2022-11-01T17:07:06.774Z,15.22
2022-11-01T17:09:34.537Z,15.22
2022-11-01T17:12:01.060Z,15.24
2022-11-01T17:14:27.714Z,15.21
2022-11-01T17:16:56.290Z,15.23
2022-11-01T17:19:33.096Z,15.25
2022-11-01T17:22:21.322Z,15.25
2022-11-01T17:24:48.113Z,15.25
2022-11-01T17:27:15.690Z,15.22
2022-11-01T17:29:43.097Z,15.23
2022-11-01T17:32:11.306Z,15.22
2022-11-01T17:34:56.700Z,15.26
2022-11-01T17:37:25.754Z,15.22
2022-11-01T17:39:53.840Z,15.16
2022-11-01T17:42:20.728Z,15.26
2022-11-01T17:44:47.258Z,15.20
2022-11-01T17:47:14.658Z,15.16
2022-11-01T17:53:09.114Z,15.13
2022-11-01T17:55:36.985Z,15.11
2022-11-01T17:58:04.605Z,15.12
2022-11-01T18:00:31.764Z,15.11
2022-11-01T18:02:58.618Z,15.07
2022-11-01T18:05:34.135Z,15.09
2022-11-01T19:08:24.973Z,15.21
2022-11-01T19:10:53.448Z,15.18
2022-11-01T19:13:34.310Z,15.09
2022-11-01T19:16:05.961Z,15.12
2022-11-01T19:18:32.553Z,15.11
2022-11-01T19:21:00.639Z,15.10
2022-11-01T19:23:42.037Z,15.14
2022-11-01T19:26:19.168Z,15.08
2022-11-01T19:28:45.752Z,14.84
2022-11-01T19:31:39.910Z,14.94
2022-11-01T19:34:16.874Z,15.01
2022-11-01T19:36:44.510Z,14.92
2022-11-01T20:04:38.190Z,14.27
2022-11-01T20:18:40.372Z,14.05
2022-11-01T20:26:44.494Z,14.04
2022-11-01T20:40:19.636Z,13.79
2022-11-01T20:43:06.665Z,13.95
2022-11-01T20:45:36.938Z,13.99
2022-11-01T20:48:04.290Z,14.10
2022-11-01T20:50:30.974Z,14.17
2022-11-01T20:55:39.378Z,14.11
2022-11-01T21:45:35.539Z,14.02
2022-11-01T21:48:19.639Z,13.53
2022-11-01T21:58:31.886Z,14.14
2022-11-01T22:01:00.416Z,14.36
2022-11-01T22:03:26.963Z,14.43
2022-11-01T22:05:53.517Z,14.42
2022-11-01T22:08:20.055Z,14.46
2022-11-01T22:10:46.646Z,14.49
2022-11-01T22:13:13.739Z,14.50
2022-11-01T22:15:40.426Z,14.40
2022-11-01T22:18:17.223Z,14.31
2022-11-01T22:20:45.432Z,14.27
2022-11-01T22:23:11.968Z,14.41
2022-11-01T22:36:40.534Z,14.54
2022-11-01T22:39:25.232Z,14.51
2022-11-01T22:41:52.170Z,14.51
2022-11-01T22:44:25.441Z,14.32
2022-11-01T22:47:02.791Z,14.40
2022-11-01T22:53:04.816Z,14.36
2022-11-01T22:55:32.294Z,14.14
2022-11-01T22:58:12.566Z,14.09
2022-11-01T23:00:39.398Z,14.14
2022-11-01T23:03:21.239Z,14.12
2022-11-01T23:05:52.606Z,14.07
2022-11-01T23:08:37.093Z,13.88
2022-11-01T23:11:04.576Z,13.83
2022-11-01T23:13:52.112Z,13.90
2022-11-01T23:16:24.867Z,13.89
2022-11-01T23:18:54.274Z,13.88
2022-11-01T23:21:22.435Z,13.66
2022-11-01T23:23:49.105Z,13.64
2022-11-01T23:26:17.692Z,13.30
2022-11-01T23:28:51.660Z,13.28
2022-11-01T23:31:18.760Z,13.30
2022-11-01T23:33:47.340Z,13.39
2022-11-01T23:36:23.314Z,13.31
2022-11-01T23:38:54.869Z,13.19
2022-11-01T23:41:25.692Z,13.16
2022-11-01T23:43:55.056Z,13.23
2022-11-01T23:46:21.695Z,13.27
2022-11-01T23:48:48.562Z,13.28
2022-11-01T23:51:19.980Z,13.13
2022-11-01T23:54:02.350Z,12.96
2022-11-01T23:56:29.128Z,12.97
2022-11-01T23:59:00.442Z,13.01
